sensor_id;sensor_type;location;lat;lon;timestamp;P1;durP1;ratioP1;P2;durP2;ratioP2
40997;SDS011;26740;45.944;12.480;2022-11-14T00:02:25;8.80;;;7.35;;
40997;SDS011;26740;45.944;12.480;2022-11-14T00:04:51;9.43;;;6.93;;
40997;SDS011;26740;45.944;12.480;2022-11-14T00:07:17;10.75;;;6.82;;
40997;SDS011;26740;45.944;12.480;2022-11-14T00:09:43;9.20;;;6.55;;
40997;SDS011;26740;45.944;12.480;2022-11-14T00:12:09;9.68;;;5.88;;
40997;SDS011;26740;45.944;12.480;2022-11-14T00:14:35;7.30;;;4.85;;
40997;SDS011;26740;45.944;12.480;2022-11-14T00:17:01;7.53;;;4.85;;
40997;SDS011;26740;45.944;12.480;2022-11-14T00:19:28;9.30;;;5.60;;
40997;SDS011;26740;45.944;12.480;2022-11-14T00:21:54;7.28;;;5.43;;
40997;SDS011;26740;45.944;12.480;2022-11-14T00:24:19;7.53;;;5.05;;
40997;SDS011;26740;45.944;12.480;2022-11-14T00:26:45;8.73;;;4.43;;
40997;SDS011;26740;45.944;12.480;2022-11-14T00:29:12;6.07;;;4.00;;
40997;SDS011;26740;45.944;12.480;2022-11-14T00:31:39;5.10;;;3.78;;
40997;SDS011;26740;45.944;12.480;2022-11-14T00:34:05;9.07;;;5.15;;
40997;SDS011;26740;45.944;12.480;2022-11-14T00:36:32;7.18;;;4.78;;
40997;SDS011;26740;45.944;12.480;2022-11-14T00:38:58;6.05;;;4.53;;
40997;SDS011;26740;45.944;12.480;2022-11-14T00:41:24;7.38;;;4.47;;
40997;SDS011;26740;45.944;12.480;2022-11-14T00:43:50;5.45;;;4.22;;
40997;SDS011;26740;45.944;12.480;2022-11-14T00:46:16;6.30;;;4.63;;
40997;SDS011;26740;45.944;12.480;2022-11-14T00:48:42;5.00;;;3.75;;
40997;SDS011;26740;45.944;12.480;2022-11-14T00:51:08;9.27;;;4.18;;
40997;SDS011;26740;45.944;12.480;2022-11-14T00:53:34;8.32;;;5.00;;
40997;SDS011;26740;45.944;12.480;2022-11-14T00:55:59;8.55;;;4.30;;
40997;SDS011;26740;45.944;12.480;2022-11-14T00:58:25;6.38;;;4.05;;
40997;SDS011;26740;45.944;12.480;2022-11-14T01:00:51;6.35;;;4.25;;
40997;SDS011;26740;45.944;12.480;2022-11-14T01:03:16;4.95;;;3.38;;
40997;SDS011;26740;45.944;12.480;2022-11-14T01:05:47;6.75;;;4.45;;
40997;SDS011;26740;45.944;12.480;2022-11-14T01:08:14;7.57;;;4.30;;
40997;SDS011;26740;45.944;12.480;2022-11-14T01:10:48;8.65;;;4.72;;
40997;SDS011;26740;45.944;12.480;2022-11-14T01:13:15;10.07;;;5.05;;
40997;SDS011;26740;45.944;12.480;2022-11-14T01:15:42;6.50;;;4.22;;
40997;SDS011;26740;45.944;12.480;2022-11-14T01:18:11;8.80;;;4.90;;
40997;SDS011;26740;45.944;12.480;2022-11-14T01:20:39;6.05;;;4.45;;
40997;SDS011;26740;45.944;12.480;2022-11-14T01:23:06;8.82;;;4.45;;
40997;SDS011;26740;45.944;12.480;2022-11-14T01:25:36;7.38;;;4.45;;
40997;SDS011;26740;45.944;12.480;2022-11-14T01:28:10;8.15;;;4.60;;
40997;SDS011;26740;45.944;12.480;2022-11-14T01:30:38;10.07;;;4.80;;
40997;SDS011;26740;45.944;12.480;2022-11-14T01:33:04;11.00;;;5.38;;
40997;SDS011;26740;45.944;12.480;2022-11-14T01:35:31;7.63;;;4.68;;
40997;SDS011;26740;45.944;12.480;2022-11-14T01:37:58;9.50;;;5.07;;
40997;SDS011;26740;45.944;12.480;2022-11-14T01:40:24;9.05;;;5.40;;
40997;SDS011;26740;45.944;12.480;2022-11-14T01:43:19;8.15;;;5.60;;
40997;SDS011;26740;45.944;12.480;2022-11-14T01:48:24;9.40;;;5.05;;
40997;SDS011;26740;45.944;12.480;2022-11-14T01:51:02;6.00;;;4.13;;
40997;SDS011;26740;45.944;12.480;2022-11-14T01:53:37;6.85;;;4.15;;
40997;SDS011;26740;45.944;12.480;2022-11-14T01:56:04;7.18;;;4.50;;
40997;SDS011;26740;45.944;12.480;2022-11-14T01:58:32;5.40;;;4.18;;
40997;SDS011;26740;45.944;12.480;2022-11-14T02:01:01;7.28;;;5.10;;
40997;SDS011;26740;45.944;12.480;2022-11-14T02:03:27;9.38;;;5.53;;
40997;SDS011;26740;45.944;12.480;2022-11-14T02:05:53;10.55;;;5.50;;
40997;SDS011;26740;45.944;12.480;2022-11-14T02:08:21;6.20;;;3.78;;
40997;SDS011;26740;45.944;12.480;2022-11-14T02:10:47;4.60;;;3.88;;
40997;SDS011;26740;45.944;12.480;2022-11-14T02:13:13;7.97;;;3.88;;
40997;SDS011;26740;45.944;12.480;2022-11-14T02:15:39;6.95;;;4.55;;
40997;SDS011;26740;45.944;12.480;2022-11-14T02:18:05;6.40;;;4.28;;
40997;SDS011;26740;45.944;12.480;2022-11-14T02:20:33;7.07;;;4.53;;
40997;SDS011;26740;45.944;12.480;2022-11-14T02:23:01;7.55;;;4.63;;
40997;SDS011;26740;45.944;12.480;2022-11-14T02:25:26;7.82;;;4.75;;
40997;SDS011;26740;45.944;12.480;2022-11-14T02:27:53;6.47;;;4.10;;
40997;SDS011;26740;45.944;12.480;2022-11-14T02:30:21;7.72;;;4.40;;
40997;SDS011;26740;45.944;12.480;2022-11-14T02:32:47;8.85;;;4.80;;
40997;SDS011;26740;45.944;12.480;2022-11-14T02:35:13;6.07;;;4.13;;
40997;SDS011;26740;45.944;12.480;2022-11-14T02:37:39;6.15;;;4.28;;
40997;SDS011;26740;45.944;12.480;2022-11-14T02:40:05;8.35;;;4.93;;
40997;SDS011;26740;45.944;12.480;2022-11-14T02:42:31;8.40;;;5.45;;
40997;SDS011;26740;45.944;12.480;2022-11-14T02:44:57;6.47;;;4.38;;
40997;SDS011;26740;45.944;12.480;2022-11-14T02:47:22;7.78;;;4.60;;
40997;SDS011;26740;45.944;12.480;2022-11-14T02:49:51;9.27;;;4.68;;
40997;SDS011;26740;45.944;12.480;2022-11-14T02:52:17;5.40;;;3.85;;
40997;SDS011;26740;45.944;12.480;2022-11-14T02:54:43;7.13;;;4.60;;
40997;SDS011;26740;45.944;12.480;2022-11-14T02:57:09;6.72;;;4.15;;
40997;SDS011;26740;45.944;12.480;2022-11-14T02:59:34;6.85;;;4.72;;
40997;SDS011;26740;45.944;12.480;2022-11-14T03:02:00;7.68;;;4.03;;
40997;SDS011;26740;45.944;12.480;2022-11-14T03:04:26;7.00;;;4.25;;
40997;SDS011;26740;45.944;12.480;2022-11-14T03:06:51;6.00;;;3.13;;
40997;SDS011;26740;45.944;12.480;2022-11-14T03:09:17;6.60;;;3.58;;
40997;SDS011;26740;45.944;12.480;2022-11-14T03:11:43;5.60;;;4.00;;
40997;SDS011;26740;45.944;12.480;2022-11-14T03:14:08;5.97;;;3.60;;
40997;SDS011;26740;45.944;12.480;2022-11-14T03:16:34;5.03;;;3.20;;
40997;SDS011;26740;45.944;12.480;2022-11-14T03:19:00;6.65;;;3.50;;
40997;SDS011;26740;45.944;12.480;2022-11-14T03:21:26;5.60;;;3.17;;
40997;SDS011;26740;45.944;12.480;2022-11-14T03:23:52;6.63;;;4.15;;
40997;SDS011;26740;45.944;12.480;2022-11-14T03:26:18;6.18;;;3.90;;
40997;SDS011;26740;45.944;12.480;2022-11-14T03:28:44;5.95;;;3.72;;
40997;SDS011;26740;45.944;12.480;2022-11-14T03:31:10;6.85;;;3.78;;
40997;SDS011;26740;45.944;12.480;2022-11-14T03:33:37;6.82;;;3.75;;
40997;SDS011;26740;45.944;12.480;2022-11-14T03:36:04;6.15;;;3.80;;
40997;SDS011;26740;45.944;12.480;2022-11-14T03:38:31;7.45;;;3.88;;
40997;SDS011;26740;45.944;12.480;2022-11-14T03:40:58;6.50;;;3.80;;
40997;SDS011;26740;45.944;12.480;2022-11-14T03:43:24;7.30;;;4.00;;
40997;SDS011;26740;45.944;12.480;2022-11-14T03:45:56;6.40;;;3.47;;
40997;SDS011;26740;45.944;12.480;2022-11-14T03:48:23;7.43;;;4.90;;
40997;SDS011;26740;45.944;12.480;2022-11-14T03:50:49;7.00;;;4.18;;
40997;SDS011;26740;45.944;12.480;2022-11-14T03:53:14;5.13;;;3.58;;
40997;SDS011;26740;45.944;12.480;2022-11-14T03:55:41;5.97;;;3.40;;
40997;SDS011;26740;45.944;12.480;2022-11-14T03:58:08;5.07;;;3.50;;
40997;SDS011;26740;45.944;12.480;2022-11-14T04:00:34;6.03;;;3.90;;
40997;SDS011;26740;45.944;12.480;2022-11-14T04:02:59;7.20;;;4.50;;
40997;SDS011;26740;45.944;12.480;2022-11-14T04:05:25;5.63;;;3.72;;
40997;SDS011;26740;45.944;12.480;2022-11-14T04:07:51;8.15;;;4.57;;
40997;SDS011;26740;45.944;12.480;2022-11-14T04:10:17;6.28;;;4.30;;
40997;SDS011;26740;45.944;12.480;2022-11-14T04:12:49;4.88;;;3.35;;
40997;SDS011;26740;45.944;12.480;2022-11-14T04:15:17;4.25;;;3.35;;
40997;SDS011;26740;45.944;12.480;2022-11-14T04:17:44;6.90;;;3.90;;
40997;SDS011;26740;45.944;12.480;2022-11-14T04:20:11;4.47;;;3.28;;
40997;SDS011;26740;45.944;12.480;2022-11-14T04:22:38;6.22;;;3.33;;
40997;SDS011;26740;45.944;12.480;2022-11-14T04:25:05;5.75;;;3.95;;
40997;SDS011;26740;45.944;12.480;2022-11-14T04:27:32;5.97;;;3.78;;
40997;SDS011;26740;45.944;12.480;2022-11-14T04:29:57;4.18;;;2.67;;
40997;SDS011;26740;45.944;12.480;2022-11-14T04:32:23;3.40;;;2.42;;
40997;SDS011;26740;45.944;12.480;2022-11-14T04:34:49;4.70;;;2.00;;
40997;SDS011;26740;45.944;12.480;2022-11-14T04:37:14;4.60;;;2.42;;
40997;SDS011;26740;45.944;12.480;2022-11-14T04:39:40;3.78;;;2.65;;
40997;SDS011;26740;45.944;12.480;2022-11-14T04:42:06;1.80;;;1.33;;
40997;SDS011;26740;45.944;12.480;2022-11-14T04:44:31;3.95;;;1.95;;
40997;SDS011;26740;45.944;12.480;2022-11-14T04:46:57;4.05;;;2.05;;
40997;SDS011;26740;45.944;12.480;2022-11-14T04:49:22;3.20;;;2.25;;
40997;SDS011;26740;45.944;12.480;2022-11-14T04:51:48;3.10;;;2.13;;
40997;SDS011;26740;45.944;12.480;2022-11-14T04:54:14;3.72;;;2.88;;
40997;SDS011;26740;45.944;12.480;2022-11-14T04:56:40;2.58;;;1.80;;
40997;SDS011;26740;45.944;12.480;2022-11-14T04:59:06;2.70;;;1.80;;
40997;SDS011;26740;45.944;12.480;2022-11-14T05:01:32;2.88;;;1.55;;
40997;SDS011;26740;45.944;12.480;2022-11-14T05:03:58;2.33;;;1.42;;
40997;SDS011;26740;45.944;12.480;2022-11-14T05:06:23;2.92;;;1.58;;
40997;SDS011;26740;45.944;12.480;2022-11-14T05:08:49;3.33;;;1.27;;
40997;SDS011;26740;45.944;12.480;2022-11-14T05:11:15;6.65;;;1.42;;
40997;SDS011;26740;45.944;12.480;2022-11-14T05:13:43;2.65;;;1.52;;
40997;SDS011;26740;45.944;12.480;2022-11-14T05:16:08;2.47;;;1.70;;
40997;SDS011;26740;45.944;12.480;2022-11-14T05:18:35;2.47;;;1.33;;
40997;SDS011;26740;45.944;12.480;2022-11-14T05:21:01;2.65;;;1.33;;
40997;SDS011;26740;45.944;12.480;2022-11-14T05:23:28;2.55;;;1.38;;
40997;SDS011;26740;45.944;12.480;2022-11-14T05:28:48;2.22;;;1.20;;
40997;SDS011;26740;45.944;12.480;2022-11-14T05:31:14;1.58;;;0.88;;
40997;SDS011;26740;45.944;12.480;2022-11-14T05:33:43;1.33;;;0.82;;
40997;SDS011;26740;45.944;12.480;2022-11-14T05:36:12;2.15;;;1.05;;
40997;SDS011;26740;45.944;12.480;2022-11-14T05:38:40;2.78;;;1.52;;
40997;SDS011;26740;45.944;12.480;2022-11-14T05:41:15;2.80;;;1.63;;
40997;SDS011;26740;45.944;12.480;2022-11-14T05:43:44;2.53;;;1.00;;
40997;SDS011;26740;45.944;12.480;2022-11-14T05:46:11;3.33;;;1.00;;
40997;SDS011;26740;45.944;12.480;2022-11-14T05:48:38;5.50;;;1.08;;
40997;SDS011;26740;45.944;12.480;2022-11-14T05:51:05;1.30;;;0.98;;
40997;SDS011;26740;45.944;12.480;2022-11-14T05:53:32;2.30;;;0.90;;
40997;SDS011;26740;45.944;12.480;2022-11-14T05:55:59;2.10;;;0.98;;
40997;SDS011;26740;45.944;12.480;2022-11-14T05:58:27;2.97;;;1.42;;
40997;SDS011;26740;45.944;12.480;2022-11-14T06:00:59;2.20;;;1.02;;
40997;SDS011;26740;45.944;12.480;2022-11-14T06:03:29;3.78;;;0.90;;
40997;SDS011;26740;45.944;12.480;2022-11-14T06:05:58;2.75;;;1.40;;
40997;SDS011;26740;45.944;12.480;2022-11-14T06:08:26;2.95;;;1.60;;
40997;SDS011;26740;45.944;12.480;2022-11-14T06:10:53;2.95;;;1.45;;
40997;SDS011;26740;45.944;12.480;2022-11-14T06:13:19;1.77;;;0.82;;
40997;SDS011;26740;45.944;12.480;2022-11-14T06:15:47;4.20;;;0.70;;
40997;SDS011;26740;45.944;12.480;2022-11-14T06:18:13;3.25;;;1.30;;
40997;SDS011;26740;45.944;12.480;2022-11-14T06:20:39;2.28;;;1.20;;
40997;SDS011;26740;45.944;12.480;2022-11-14T06:23:04;1.45;;;0.70;;
40997;SDS011;26740;45.944;12.480;2022-11-14T06:25:30;5.43;;;1.45;;
40997;SDS011;26740;45.944;12.480;2022-11-14T06:27:57;1.67;;;1.02;;
40997;SDS011;26740;45.944;12.480;2022-11-14T06:30:23;2.13;;;0.85;;
40997;SDS011;26740;45.944;12.480;2022-11-14T06:32:48;2.13;;;0.80;;
40997;SDS011;26740;45.944;12.480;2022-11-14T06:35:14;1.45;;;1.15;;
40997;SDS011;26740;45.944;12.480;2022-11-14T06:37:39;1.95;;;1.27;;
40997;SDS011;26740;45.944;12.480;2022-11-14T06:40:05;1.73;;;0.80;;
40997;SDS011;26740;45.944;12.480;2022-11-14T06:42:32;3.50;;;1.02;;
40997;SDS011;26740;45.944;12.480;2022-11-14T06:44:57;1.52;;;1.10;;
40997;SDS011;26740;45.944;12.480;2022-11-14T06:47:23;3.78;;;1.10;;
40997;SDS011;26740;45.944;12.480;2022-11-14T06:49:49;1.10;;;0.80;;
40997;SDS011;26740;45.944;12.480;2022-11-14T06:52:14;2.25;;;0.90;;
40997;SDS011;26740;45.944;12.480;2022-11-14T06:54:40;2.05;;;0.98;;
40997;SDS011;26740;45.944;12.480;2022-11-14T06:57:05;2.83;;;0.85;;
40997;SDS011;26740;45.944;12.480;2022-11-14T06:59:31;1.42;;;0.60;;
40997;SDS011;26740;45.944;12.480;2022-11-14T07:01:57;3.25;;;1.05;;
40997;SDS011;26740;45.944;12.480;2022-11-14T07:04:23;2.28;;;1.27;;
40997;SDS011;26740;45.944;12.480;2022-11-14T07:06:48;8.30;;;2.60;;
40997;SDS011;26740;45.944;12.480;2022-11-14T07:09:14;2.17;;;1.45;;
40997;SDS011;26740;45.944;12.480;2022-11-14T07:11:40;1.40;;;0.82;;
40997;SDS011;26740;45.944;12.480;2022-11-14T07:14:06;1.55;;;0.88;;
40997;SDS011;26740;45.944;12.480;2022-11-14T07:16:33;3.67;;;1.00;;
40997;SDS011;26740;45.944;12.480;2022-11-14T07:19:00;2.38;;;0.80;;
40997;SDS011;26740;45.944;12.480;2022-11-14T07:21:27;3.17;;;1.27;;
40997;SDS011;26740;45.944;12.480;2022-11-14T07:23:55;1.52;;;0.82;;
40997;SDS011;26740;45.944;12.480;2022-11-14T07:26:21;1.60;;;0.77;;
40997;SDS011;26740;45.944;12.480;2022-11-14T07:28:47;1.35;;;0.70;;
40997;SDS011;26740;45.944;12.480;2022-11-14T07:31:13;1.92;;;0.70;;
40997;SDS011;26740;45.944;12.480;2022-11-14T07:33:42;1.42;;;0.98;;
40997;SDS011;26740;45.944;12.480;2022-11-14T07:36:09;2.03;;;0.85;;
40997;SDS011;26740;45.944;12.480;2022-11-14T07:38:36;6.97;;;0.90;;
40997;SDS011;26740;45.944;12.480;2022-11-14T07:41:03;2.95;;;0.63;;
40997;SDS011;26740;45.944;12.480;2022-11-14T07:43:32;2.22;;;1.02;;
40997;SDS011;26740;45.944;12.480;2022-11-14T07:46:05;2.70;;;1.45;;
40997;SDS011;26740;45.944;12.480;2022-11-14T07:48:36;1.83;;;1.00;;
40997;SDS011;26740;45.944;12.480;2022-11-14T07:51:03;2.55;;;0.85;;
40997;SDS011;26740;45.944;12.480;2022-11-14T07:53:30;3.25;;;1.60;;
40997;SDS011;26740;45.944;12.480;2022-11-14T07:56:01;1.80;;;0.88;;
40997;SDS011;26740;45.944;12.480;2022-11-14T07:58:29;2.55;;;1.05;;
40997;SDS011;26740;45.944;12.480;2022-11-14T08:00:54;3.38;;;1.70;;
40997;SDS011;26740;45.944;12.480;2022-11-14T08:03:20;4.70;;;1.70;;
40997;SDS011;26740;45.944;12.480;2022-11-14T08:05:46;2.08;;;1.30;;
40997;SDS011;26740;45.944;12.480;2022-11-14T08:08:11;1.95;;;1.23;;
40997;SDS011;26740;45.944;12.480;2022-11-14T08:10:37;2.20;;;1.25;;
40997;SDS011;26740;45.944;12.480;2022-11-14T08:13:03;2.35;;;1.00;;
40997;SDS011;26740;45.944;12.480;2022-11-14T08:15:30;3.67;;;1.02;;
40997;SDS011;26740;45.944;12.480;2022-11-14T08:17:59;3.08;;;1.23;;
40997;SDS011;26740;45.944;12.480;2022-11-14T08:20:25;1.13;;;0.70;;
40997;SDS011;26740;45.944;12.480;2022-11-14T08:22:52;1.67;;;1.30;;
40997;SDS011;26740;45.944;12.480;2022-11-14T08:25:28;2.88;;;1.60;;
40997;SDS011;26740;45.944;12.480;2022-11-14T08:27:54;3.42;;;1.00;;
40997;SDS011;26740;45.944;12.480;2022-11-14T08:30:19;3.60;;;1.70;;
40997;SDS011;26740;45.944;12.480;2022-11-14T08:32:45;2.45;;;1.10;;
40997;SDS011;26740;45.944;12.480;2022-11-14T08:35:11;5.47;;;1.33;;
40997;SDS011;26740;45.944;12.480;2022-11-14T08:37:36;2.55;;;1.33;;
40997;SDS011;26740;45.944;12.480;2022-11-14T08:40:02;2.08;;;1.30;;
40997;SDS011;26740;45.944;12.480;2022-11-14T08:42:28;2.20;;;1.42;;
40997;SDS011;26740;45.944;12.480;2022-11-14T08:44:53;7.10;;;1.42;;
40997;SDS011;26740;45.944;12.480;2022-11-14T08:47:19;3.13;;;1.23;;
40997;SDS011;26740;45.944;12.480;2022-11-14T08:49:45;1.70;;;1.25;;
40997;SDS011;26740;45.944;12.480;2022-11-14T08:52:10;2.80;;;1.20;;
40997;SDS011;26740;45.944;12.480;2022-11-14T08:54:36;2.85;;;1.27;;
40997;SDS011;26740;45.944;12.480;2022-11-14T08:57:01;4.82;;;1.88;;
40997;SDS011;26740;45.944;12.480;2022-11-14T08:59:29;7.97;;;2.35;;
40997;SDS011;26740;45.944;12.480;2022-11-14T09:01:55;2.45;;;1.20;;
40997;SDS011;26740;45.944;12.480;2022-11-14T09:04:21;1.55;;;0.95;;
40997;SDS011;26740;45.944;12.480;2022-11-14T09:06:47;4.40;;;1.58;;
40997;SDS011;26740;45.944;12.480;2022-11-14T09:09:12;3.65;;;1.60;;
40997;SDS011;26740;45.944;12.480;2022-11-14T09:11:38;3.30;;;1.25;;
40997;SDS011;26740;45.944;12.480;2022-11-14T09:14:04;3.55;;;1.50;;
40997;SDS011;26740;45.944;12.480;2022-11-14T09:16:30;2.47;;;1.27;;
40997;SDS011;26740;45.944;12.480;2022-11-14T09:18:55;4.03;;;1.35;;
40997;SDS011;26740;45.944;12.480;2022-11-14T09:21:21;2.55;;;1.40;;
40997;SDS011;26740;45.944;12.480;2022-11-14T09:23:47;2.95;;;1.38;;
40997;SDS011;26740;45.944;12.480;2022-11-14T09:26:12;1.90;;;1.08;;
40997;SDS011;26740;45.944;12.480;2022-11-14T09:28:38;8.55;;;1.67;;
40997;SDS011;26740;45.944;12.480;2022-11-14T09:31:05;3.75;;;1.88;;
40997;SDS011;26740;45.944;12.480;2022-11-14T09:33:33;1.40;;;0.90;;
40997;SDS011;26740;45.944;12.480;2022-11-14T09:36:00;2.97;;;0.95;;
40997;SDS011;26740;45.944;12.480;2022-11-14T09:38:28;4.38;;;0.98;;
40997;SDS011;26740;45.944;12.480;2022-11-14T09:46:38;1.60;;;1.20;;
40997;SDS011;26740;45.944;12.480;2022-11-14T09:49:32;4.25;;;1.48;;
40997;SDS011;26740;45.944;12.480;2022-11-14T09:52:12;3.17;;;1.42;;
40997;SDS011;26740;45.944;12.480;2022-11-14T09:54:55;2.05;;;0.70;;
40997;SDS011;26740;45.944;12.480;2022-11-14T09:57:27;7.20;;;1.98;;
40997;SDS011;26740;45.944;12.480;2022-11-14T09:59:53;2.30;;;1.10;;
40997;SDS011;26740;45.944;12.480;2022-11-14T10:05:58;4.10;;;1.17;;
40997;SDS011;26740;45.944;12.480;2022-11-14T10:08:05;3.22;;;1.60;;
40997;SDS011;26740;45.944;12.480;2022-11-14T10:13:35;11.00;;;2.20;;
40997;SDS011;26740;45.944;12.480;2022-11-14T10:16:31;4.25;;;0.70;;
40997;SDS011;26740;45.944;12.480;2022-11-14T10:19:22;6.90;;;1.60;;
40997;SDS011;26740;45.944;12.480;2022-11-14T10:24:48;1.70;;;0.75;;
40997;SDS011;26740;45.944;12.480;2022-11-14T10:30:34;1.77;;;1.10;;
40997;SDS011;26740;45.944;12.480;2022-11-14T10:33:11;6.95;;;1.23;;
40997;SDS011;26740;45.944;12.480;2022-11-14T10:36:37;1.33;;;0.80;;
40997;SDS011;26740;45.944;12.480;2022-11-14T10:38:59;2.15;;;1.13;;
40997;SDS011;26740;45.944;12.480;2022-11-14T10:41:35;1.73;;;0.98;;
40997;SDS011;26740;45.944;12.480;2022-11-14T10:44:01;3.00;;;1.10;;
40997;SDS011;26740;45.944;12.480;2022-11-14T10:46:38;3.20;;;1.10;;
40997;SDS011;26740;45.944;12.480;2022-11-14T10:49:22;3.22;;;1.40;;
40997;SDS011;26740;45.944;12.480;2022-11-14T10:51:51;4.00;;;1.05;;
40997;SDS011;26740;45.944;12.480;2022-11-14T10:54:27;3.72;;;1.10;;
40997;SDS011;26740;45.944;12.480;2022-11-14T10:57:01;2.95;;;0.77;;
40997;SDS011;26740;45.944;12.480;2022-11-14T10:59:26;2.90;;;0.80;;
40997;SDS011;26740;45.944;12.480;2022-11-14T11:01:53;0.95;;;0.50;;
40997;SDS011;26740;45.944;12.480;2022-11-14T11:04:25;2.25;;;1.05;;
40997;SDS011;26740;45.944;12.480;2022-11-14T11:06:56;1.00;;;0.50;;
40997;SDS011;26740;45.944;12.480;2022-11-14T11:09:31;1.85;;;1.08;;
40997;SDS011;26740;45.944;12.480;2022-11-14T11:12:21;2.55;;;0.65;;
40997;SDS011;26740;45.944;12.480;2022-11-14T11:18:00;1.90;;;0.65;;
40997;SDS011;26740;45.944;12.480;2022-11-14T11:20:31;1.42;;;0.75;;
40997;SDS011;26740;45.944;12.480;2022-11-14T11:25:34;4.72;;;0.85;;
40997;SDS011;26740;45.944;12.480;2022-11-14T11:28:02;6.13;;;0.88;;
40997;SDS011;26740;45.944;12.480;2022-11-14T11:30:57;1.40;;;0.82;;
40997;SDS011;26740;45.944;12.480;2022-11-14T11:33:24;1.90;;;0.75;;
40997;SDS011;26740;45.944;12.480;2022-11-14T11:35:55;0.88;;;0.60;;
40997;SDS011;26740;45.944;12.480;2022-11-14T11:38:28;1.33;;;0.70;;
40997;SDS011;26740;45.944;12.480;2022-11-14T11:40:59;0.80;;;0.50;;
40997;SDS011;26740;45.944;12.480;2022-11-14T11:43:41;1.25;;;0.50;;
40997;SDS011;26740;45.944;12.480;2022-11-14T11:46:27;1.17;;;0.70;;
40997;SDS011;26740;45.944;12.480;2022-11-14T11:49:14;1.80;;;0.68;;
40997;SDS011;26740;45.944;12.480;2022-11-14T11:51:51;1.40;;;0.60;;
40997;SDS011;26740;45.944;12.480;2022-11-14T11:57:11;18.10;;;1.10;;
40997;SDS011;26740;45.944;12.480;2022-11-14T11:59:44;1.10;;;0.43;;
40997;SDS011;26740;45.944;12.480;2022-11-14T12:02:26;4.15;;;0.68;;
40997;SDS011;26740;45.944;12.480;2022-11-14T12:04:53;0.88;;;0.55;;
40997;SDS011;26740;45.944;12.480;2022-11-14T12:07:23;35.47;;;13.57;;
40997;SDS011;26740;45.944;12.480;2022-11-14T12:09:57;21.10;;;11.30;;
40997;SDS011;26740;45.944;12.480;2022-11-14T12:15:16;4.50;;;3.72;;
40997;SDS011;26740;45.944;12.480;2022-11-14T12:27:03;3.60;;;1.85;;
40997;SDS011;26740;45.944;12.480;2022-11-14T12:31:46;3.30;;;1.00;;
40997;SDS011;26740;45.944;12.480;2022-11-14T12:34:24;4.93;;;1.27;;
40997;SDS011;26740;45.944;12.480;2022-11-14T12:36:55;7.45;;;2.97;;
40997;SDS011;26740;45.944;12.480;2022-11-14T12:39:27;3.90;;;1.70;;
40997;SDS011;26740;45.944;12.480;2022-11-14T12:42:04;2.67;;;1.23;;
40997;SDS011;26740;45.944;12.480;2022-11-14T12:44:38;4.38;;;1.83;;
40997;SDS011;26740;45.944;12.480;2022-11-14T12:49:37;1.83;;;1.08;;
40997;SDS011;26740;45.944;12.480;2022-11-14T13:00:23;2.78;;;1.33;;
40997;SDS011;26740;45.944;12.480;2022-11-14T13:02:58;2.35;;;1.63;;
40997;SDS011;26740;45.944;12.480;2022-11-14T13:14:19;3.70;;;1.17;;
40997;SDS011;26740;45.944;12.480;2022-11-14T13:33:44;3.38;;;1.92;;
40997;SDS011;26740;45.944;12.480;2022-11-14T13:44:28;3.25;;;1.27;;
40997;SDS011;26740;45.944;12.480;2022-11-14T13:47:12;2.03;;;1.20;;
40997;SDS011;26740;45.944;12.480;2022-11-14T13:49:55;2.08;;;1.00;;
40997;SDS011;26740;45.944;12.480;2022-11-14T13:52:32;1.02;;;0.80;;
40997;SDS011;26740;45.944;12.480;2022-11-14T13:54:59;1.65;;;0.95;;
40997;SDS011;26740;45.944;12.480;2022-11-14T13:57:36;2.75;;;1.17;;
40997;SDS011;26740;45.944;12.480;2022-11-14T14:00:46;3.35;;;3.05;;
40997;SDS011;26740;45.944;12.480;2022-11-14T14:03:21;4.65;;;4.00;;
40997;SDS011;26740;45.944;12.480;2022-11-14T14:06:18;7.90;;;1.80;;
40997;SDS011;26740;45.944;12.480;2022-11-14T14:17:14;1.65;;;1.48;;
40997;SDS011;26740;45.944;12.480;2022-11-14T14:22:30;2.00;;;1.30;;
40997;SDS011;26740;45.944;12.480;2022-11-14T14:25:17;3.03;;;1.38;;
40997;SDS011;26740;45.944;12.480;2022-11-14T14:28:12;1.15;;;0.80;;
40997;SDS011;26740;45.944;12.480;2022-11-14T14:31:00;2.93;;;1.30;;
40997;SDS011;26740;45.944;12.480;2022-11-14T14:33:27;3.78;;;2.30;;
40997;SDS011;26740;45.944;12.480;2022-11-14T14:36:03;4.18;;;2.50;;
40997;SDS011;26740;45.944;12.480;2022-11-14T14:38:28;4.07;;;2.05;;
40997;SDS011;26740;45.944;12.480;2022-11-14T14:40:54;6.03;;;2.92;;
40997;SDS011;26740;45.944;12.480;2022-11-14T14:43:22;7.68;;;3.22;;
40997;SDS011;26740;45.944;12.480;2022-11-14T14:45:56;3.35;;;2.08;;
40997;SDS011;26740;45.944;12.480;2022-11-14T14:48:26;4.35;;;1.52;;
40997;SDS011;26740;45.944;12.480;2022-11-14T14:50:55;2.05;;;1.48;;
40997;SDS011;26740;45.944;12.480;2022-11-14T14:53:27;12.00;;;1.48;;
40997;SDS011;26740;45.944;12.480;2022-11-14T14:55:58;3.42;;;1.70;;
40997;SDS011;26740;45.944;12.480;2022-11-14T15:03:21;2.53;;;1.52;;
40997;SDS011;26740;45.944;12.480;2022-11-14T15:05:55;2.33;;;1.10;;
40997;SDS011;26740;45.944;12.480;2022-11-14T15:08:26;2.13;;;1.00;;
40997;SDS011;26740;45.944;12.480;2022-11-14T15:10:57;4.25;;;1.83;;
40997;SDS011;26740;45.944;12.480;2022-11-14T15:13:25;5.63;;;2.63;;
40997;SDS011;26740;45.944;12.480;2022-11-14T15:15:52;3.70;;;1.70;;
40997;SDS011;26740;45.944;12.480;2022-11-14T15:18:22;5.80;;;1.80;;
40997;SDS011;26740;45.944;12.480;2022-11-14T15:21:07;6.03;;;2.13;;
40997;SDS011;26740;45.944;12.480;2022-11-14T15:23:41;7.40;;;2.13;;
40997;SDS011;26740;45.944;12.480;2022-11-14T15:26:10;8.07;;;2.80;;
40997;SDS011;26740;45.944;12.480;2022-11-14T15:28:40;7.03;;;3.05;;
40997;SDS011;26740;45.944;12.480;2022-11-14T15:31:11;6.32;;;2.97;;
40997;SDS011;26740;45.944;12.480;2022-11-14T15:33:42;6.63;;;2.88;;
40997;SDS011;26740;45.944;12.480;2022-11-14T15:36:10;4.20;;;2.40;;
40997;SDS011;26740;45.944;12.480;2022-11-14T15:38:59;2.72;;;1.73;;
40997;SDS011;26740;45.944;12.480;2022-11-14T15:41:48;3.78;;;1.92;;
40997;SDS011;26740;45.944;12.480;2022-11-14T15:44:29;2.83;;;1.50;;
40997;SDS011;26740;45.944;12.480;2022-11-14T15:46:56;3.90;;;1.60;;
40997;SDS011;26740;45.944;12.480;2022-11-14T15:49:23;2.85;;;1.80;;
40997;SDS011;26740;45.944;12.480;2022-11-14T15:51:59;4.32;;;2.10;;
40997;SDS011;26740;45.944;12.480;2022-11-14T15:57:00;5.85;;;2.13;;
40997;SDS011;26740;45.944;12.480;2022-11-14T15:59:36;3.80;;;2.25;;
40997;SDS011;26740;45.944;12.480;2022-11-14T16:04:59;6.28;;;2.03;;
40997;SDS011;26740;45.944;12.480;2022-11-14T16:07:28;2.85;;;1.73;;
40997;SDS011;26740;45.944;12.480;2022-11-14T16:09:53;4.85;;;1.70;;
40997;SDS011;26740;45.944;12.480;2022-11-14T16:12:19;7.13;;;2.95;;
40997;SDS011;26740;45.944;12.480;2022-11-14T16:14:45;6.47;;;3.05;;
40997;SDS011;26740;45.944;12.480;2022-11-14T16:17:11;8.60;;;3.65;;
40997;SDS011;26740;45.944;12.480;2022-11-14T16:19:39;7.88;;;4.22;;
40997;SDS011;26740;45.944;12.480;2022-11-14T16:22:07;9.00;;;4.70;;
40997;SDS011;26740;45.944;12.480;2022-11-14T16:24:37;11.30;;;4.80;;
40997;SDS011;26740;45.944;12.480;2022-11-14T16:27:03;8.13;;;4.50;;
40997;SDS011;26740;45.944;12.480;2022-11-14T16:29:28;6.13;;;3.60;;
40997;SDS011;26740;45.944;12.480;2022-11-14T16:31:54;10.43;;;4.28;;
40997;SDS011;26740;45.944;12.480;2022-11-14T16:34:21;6.15;;;4.20;;
40997;SDS011;26740;45.944;12.480;2022-11-14T16:36:53;10.60;;;8.10;;
40997;SDS011;26740;45.944;12.480;2022-11-14T16:39:22;16.33;;;8.80;;